createdAt,value
2022-08-17T00:01:00.258Z,49.91
2022-08-17T00:03:30.295Z,49.96
2022-08-17T00:05:59.903Z,49.54
2022-08-17T00:08:29.401Z,49.81
2022-08-17T00:10:56.877Z,49.50
2022-08-17T00:13:25.921Z,49.44
2022-08-17T00:46:46.868Z,50.51
2022-08-17T00:49:15.610Z,51.06
2022-08-17T00:51:44.351Z,51.43
2022-08-17T00:54:14.052Z,51.98
2022-08-17T01:49:24.363Z,50.80
2022-08-17T01:51:51.681Z,50.84
2022-08-17T01:54:20.150Z,50.64
2022-08-17T01:56:50.279Z,50.62
2022-08-17T01:59:20.002Z,50.63
2022-08-17T02:01:47.184Z,50.59
2022-08-17T02:19:10.621Z,49.99
2022-08-17T02:21:38.333Z,50.08
2022-08-17T02:24:06.885Z,50.01
2022-08-17T02:26:33.918Z,49.91
2022-08-17T02:29:00.885Z,50.68
2022-08-17T02:31:27.824Z,50.47
2022-08-17T02:33:56.690Z,50.39
2022-08-17T03:00:30.875Z,50.78
2022-08-17T03:03:00.757Z,50.72
2022-08-17T03:08:12.975Z,50.90
2022-08-17T03:10:40.268Z,50.94
2022-08-17T03:13:07.869Z,50.93
2022-08-17T03:15:35.116Z,50.88
2022-08-17T03:18:03.811Z,50.80
2022-08-17T03:20:32.633Z,50.86
2022-08-17T03:23:01.695Z,50.80
2022-08-17T03:25:31.257Z,50.88
2022-08-17T03:28:01.102Z,50.83
2022-08-17T03:30:28.787Z,50.78
2022-08-17T03:33:12.429Z,50.96
2022-08-17T03:38:23.284Z,51.31
2022-08-17T03:40:58.771Z,51.62
2022-08-17T03:43:30.515Z,51.78
2022-08-17T03:46:34.476Z,51.82
2022-08-17T03:49:22.131Z,51.80
2022-08-17T03:52:09.313Z,52.45
2022-08-17T03:54:55.225Z,52.15
2022-08-17T03:57:21.948Z,52.48
2022-08-17T03:59:49.484Z,52.68
2022-08-17T04:02:18.924Z,52.80
2022-08-17T04:19:34.318Z,53.09
2022-08-17T04:22:09.064Z,53.19
2022-08-17T04:24:36.495Z,53.77
2022-08-17T04:29:58.761Z,54.30
2022-08-17T04:33:00.818Z,54.46
2022-08-17T04:35:12.425Z,54.50
2022-08-17T04:41:03.962Z,53.92
2022-08-17T04:43:32.424Z,53.85
2022-08-17T04:46:01.430Z,53.71
2022-08-17T04:48:36.277Z,53.48
2022-08-17T05:52:05.718Z,51.53
2022-08-17T05:54:41.830Z,51.94
2022-08-17T05:57:30.525Z,52.33
2022-08-17T06:00:06.829Z,52.54
2022-08-17T06:02:47.702Z,52.34
2022-08-17T07:27:43.634Z,47.25
2022-08-17T08:02:20.189Z,41.54
2022-08-17T08:11:07.286Z,41.21
2022-08-17T08:19:20.926Z,40.63
2022-08-17T08:31:19.689Z,40.53
2022-08-17T08:52:09.540Z,38.95
2022-08-17T08:54:41.252Z,38.34
2022-08-17T09:52:24.749Z,33.73
2022-08-17T10:24:34.622Z,32.83
2022-08-17T10:32:50.005Z,31.95
2022-08-17T11:24:19.896Z,31.43
2022-08-17T11:42:30.247Z,30.98
2022-08-17T11:45:03.312Z,31.09
2022-08-17T11:48:23.817Z,31.13
2022-08-17T11:51:07.085Z,31.25
2022-08-17T11:56:59.730Z,31.40
2022-08-17T11:59:59.064Z,31.78
2022-08-17T12:02:43.340Z,31.49
2022-08-17T12:05:29.835Z,31.28
2022-08-17T12:08:07.470Z,31.56
2022-08-17T12:10:36.806Z,31.70
2022-08-17T12:13:10.418Z,31.35
2022-08-17T12:15:42.435Z,31.73
2022-08-17T12:18:18.856Z,31.82
2022-08-17T12:20:56.550Z,31.90
2022-08-17T12:23:30.521Z,31.37
2022-08-17T12:26:00.964Z,31.03
2022-08-17T12:28:44.435Z,31.33
2022-08-17T12:31:17.818Z,31.64
2022-08-17T12:33:46.783Z,32.36
2022-08-17T12:36:16.744Z,31.70
2022-08-17T12:38:51.255Z,31.93
2022-08-17T12:41:30.527Z,31.89
2022-08-17T12:43:58.642Z,32.23
2022-08-17T12:46:26.740Z,32.35
2022-08-17T12:48:59.074Z,32.11
2022-08-17T12:51:26.235Z,32.38
2022-08-17T12:53:54.950Z,32.17
2022-08-17T12:56:21.753Z,32.20
2022-08-17T12:58:55.569Z,32.35
2022-08-17T13:01:25.256Z,32.51
2022-08-17T13:03:59.594Z,32.33
2022-08-17T13:06:28.621Z,32.62
2022-08-17T13:08:55.360Z,32.91
2022-08-17T13:11:25.018Z,33.29
2022-08-17T13:13:55.093Z,32.95
2022-08-17T13:16:25.041Z,33.58
2022-08-17T13:19:05.143Z,33.35
2022-08-17T13:21:33.718Z,33.28
2022-08-17T13:24:03.935Z,32.83
2022-08-17T13:26:34.123Z,33.33
2022-08-17T13:29:04.544Z,33.30
2022-08-17T13:31:52.143Z,33.45
2022-08-17T13:34:33.813Z,33.53
2022-08-17T13:40:30.081Z,33.43
2022-08-17T13:42:59.565Z,33.75
2022-08-17T13:45:39.736Z,34.09
2022-08-17T13:48:13.680Z,34.25
2022-08-17T13:51:19.564Z,33.84
2022-08-17T13:54:08.296Z,33.03
2022-08-17T13:57:04.377Z,33.17
2022-08-17T13:59:54.584Z,32.85
2022-08-17T14:02:26.624Z,32.77
2022-08-17T14:07:57.024Z,32.34
2022-08-17T14:10:29.665Z,32.74
2022-08-17T14:12:56.955Z,32.38
2022-08-17T14:15:56.243Z,32.80
2022-08-17T14:18:13.330Z,32.48
2022-08-17T14:23:20.973Z,32.65
2022-08-17T14:25:51.708Z,32.21
2022-08-17T14:31:01.106Z,32.46
2022-08-17T14:33:31.506Z,32.31
2022-08-17T14:35:58.523Z,32.28
2022-08-17T14:41:43.270Z,31.83
2022-08-17T14:44:14.914Z,31.91
2022-08-17T14:46:53.038Z,32.09
2022-08-17T14:52:01.689Z,32.04
2022-08-17T14:54:34.085Z,32.27
2022-08-17T14:57:23.234Z,32.16
2022-08-17T15:05:38.635Z,31.81
2022-08-17T15:08:06.110Z,32.11
2022-08-17T15:13:21.023Z,32.24
2022-08-17T15:19:02.428Z,32.11
2022-08-17T15:29:32.211Z,32.05
2022-08-17T15:35:07.731Z,32.38
2022-08-17T15:40:17.289Z,32.29
2022-08-17T15:45:36.604Z,32.84
2022-08-17T15:57:09.361Z,34.02
2022-08-17T15:59:36.033Z,34.11
2022-08-17T16:03:14.151Z,34.00
2022-08-17T16:05:04.814Z,34.91
2022-08-17T16:16:02.067Z,35.23
2022-08-17T16:21:26.810Z,35.11
2022-08-17T16:26:37.011Z,35.49
2022-08-17T16:29:07.057Z,35.47
2022-08-17T16:32:03.562Z,35.28
2022-08-17T16:35:03.293Z,35.98
2022-08-17T16:40:17.638Z,36.10
2022-08-17T16:42:55.569Z,36.14
2022-08-17T16:45:28.171Z,36.12
2022-08-17T16:47:59.135Z,36.61
2022-08-17T16:50:29.096Z,36.35
2022-08-17T16:53:06.929Z,36.44
2022-08-17T16:55:35.931Z,36.91
2022-08-17T16:58:11.265Z,36.80
2022-08-17T17:00:40.826Z,36.89
2022-08-17T17:03:19.754Z,37.10
2022-08-17T17:05:59.088Z,36.64
2022-08-17T17:08:55.895Z,36.83
2022-08-17T17:11:28.348Z,37.06
2022-08-17T17:14:05.640Z,36.94
2022-08-17T17:16:41.711Z,36.50
2022-08-17T17:19:18.041Z,36.25
2022-08-17T17:22:08.550Z,35.99
2022-08-17T17:24:47.050Z,35.75
2022-08-17T17:27:23.831Z,36.14
2022-08-17T17:30:02.194Z,36.45
2022-08-17T17:32:37.927Z,36.52
2022-08-17T17:35:11.728Z,36.45
2022-08-17T17:37:42.597Z,36.43
2022-08-17T17:40:20.463Z,37.41
2022-08-17T17:42:48.567Z,37.54
2022-08-17T17:45:24.365Z,37.54
2022-08-17T17:47:51.483Z,37.66
2022-08-17T17:50:21.477Z,38.56
2022-08-17T17:52:59.298Z,38.68
2022-08-17T17:55:49.501Z,38.19
2022-08-17T17:58:27.317Z,38.74
2022-08-17T18:01:10.569Z,38.21
2022-08-17T18:03:52.672Z,38.17
2022-08-17T18:06:28.076Z,38.54
2022-08-17T18:09:08.723Z,38.24
2022-08-17T18:12:11.112Z,37.73
2022-08-17T18:15:06.306Z,37.43
2022-08-17T18:17:33.445Z,37.85
2022-08-17T18:20:00.188Z,38.23
2022-08-17T18:22:27.823Z,38.88
2022-08-17T18:24:58.418Z,39.94
2022-08-17T18:27:32.572Z,40.47
2022-08-17T18:30:04.591Z,40.47
2022-08-17T18:32:37.498Z,40.56
2022-08-17T18:35:32.591Z,40.73
2022-08-17T18:38:21.501Z,40.34
2022-08-17T18:40:58.898Z,40.82
2022-08-17T18:43:44.063Z,41.35
2022-08-17T18:46:28.408Z,41.44
2022-08-17T18:48:59.456Z,41.32
2022-08-17T18:51:42.358Z,41.42
2022-08-17T18:54:21.848Z,41.10
2022-08-17T18:56:54.874Z,40.64
2022-08-17T18:59:38.288Z,40.79
2022-08-17T19:02:35.020Z,41.37
2022-08-17T19:05:09.032Z,41.43
2022-08-17T19:07:39.334Z,41.33
2022-08-17T19:10:14.693Z,41.52
2022-08-17T19:12:46.371Z,41.46
2022-08-17T19:15:18.760Z,41.91
2022-08-17T19:17:51.882Z,41.99
2022-08-17T19:20:22.734Z,41.17
2022-08-17T19:23:12.227Z,41.01
2022-08-17T19:25:45.360Z,41.11
2022-08-17T19:31:14.081Z,42.01
2022-08-17T19:33:41.561Z,42.33
2022-08-17T19:39:26.494Z,42.52
2022-08-17T19:45:04.586Z,42.96
2022-08-17T19:47:54.848Z,43.40
2022-08-17T19:50:30.004Z,43.68
2022-08-17T19:53:04.101Z,44.09
2022-08-17T19:55:48.686Z,44.08
2022-08-17T19:58:30.393Z,43.79
2022-08-17T20:00:57.523Z,43.84
2022-08-17T20:03:34.904Z,43.92
2022-08-17T20:06:13.081Z,43.88
2022-08-17T20:08:58.803Z,43.71
2022-08-17T20:11:32.542Z,43.54
2022-08-17T20:14:06.253Z,43.66
2022-08-17T20:16:34.581Z,43.50
2022-08-17T20:19:10.495Z,43.54
2022-08-17T20:21:46.191Z,43.47
2022-08-17T20:24:20.859Z,43.29
2022-08-17T20:26:58.326Z,42.90
2022-08-17T20:29:39.604Z,43.31
2022-08-17T20:32:14.118Z,43.58
2022-08-17T20:34:47.572Z,43.94
2022-08-17T20:37:28.378Z,44.31
2022-08-17T20:40:25.976Z,44.51
2022-08-17T20:42:53.050Z,44.59
2022-08-17T20:45:48.847Z,44.54
2022-08-17T20:48:36.729Z,44.45
2022-08-17T20:51:19.924Z,44.57
2022-08-17T20:54:06.954Z,44.61
2022-08-17T20:56:51.496Z,44.84
2022-08-17T20:59:55.560Z,44.87
2022-08-17T21:02:24.171Z,45.05
2022-08-17T21:05:07.022Z,44.81
2022-08-17T21:08:10.489Z,44.96
2022-08-17T21:10:40.464Z,44.76
2022-08-17T21:13:43.521Z,45.15
2022-08-17T21:16:29.896Z,45.09
2022-08-17T21:19:07.507Z,45.19
2022-08-17T21:21:43.554Z,45.05
2022-08-17T21:24:25.556Z,45.20
2022-08-17T21:27:05.966Z,44.89
2022-08-17T21:29:33.961Z,45.10
2022-08-17T21:32:18.572Z,45.41
2022-08-17T21:35:30.774Z,45.02
2022-08-17T21:38:06.644Z,44.81
2022-08-17T21:40:34.375Z,44.85
2022-08-17T21:43:18.173Z,44.53
2022-08-17T21:45:55.705Z,45.01
2022-08-17T21:48:27.065Z,44.93
2022-08-17T21:51:00.935Z,44.67
2022-08-17T21:53:36.666Z,45.06
2022-08-17T21:56:04.030Z,45.65
2022-08-17T21:58:33.238Z,46.30
2022-08-17T22:01:22.785Z,46.46
2022-08-17T22:03:57.104Z,47.10
2022-08-17T22:06:26.509Z,47.46
2022-08-17T22:09:11.912Z,48.03
2022-08-17T22:11:52.693Z,47.82
2022-08-17T22:14:26.388Z,48.30
2022-08-17T22:17:16.947Z,48.42
2022-08-17T22:19:46.833Z,49.00
2022-08-17T22:22:34.159Z,48.95
2022-08-17T22:25:05.772Z,49.16
2022-08-17T22:27:48.920Z,49.25
2022-08-17T22:30:28.133Z,49.21
2022-08-17T22:32:55.931Z,49.54
2022-08-17T22:35:37.819Z,49.29
2022-08-17T22:38:31.797Z,49.24
2022-08-17T22:41:25.413Z,49.20
2022-08-17T22:43:53.980Z,49.74
2022-08-17T22:46:25.332Z,49.43
2022-08-17T22:48:56.797Z,49.70
2022-08-17T22:51:27.714Z,49.39
2022-08-17T22:54:16.291Z,49.44
2022-08-17T22:57:15.346Z,49.46
2022-08-17T22:59:49.627Z,49.43
2022-08-17T23:02:23.346Z,49.29
2022-08-17T23:04:52.810Z,49.43
2022-08-17T23:07:20.730Z,49.50
2022-08-17T23:09:47.583Z,49.66
2022-08-17T23:12:22.463Z,49.42
2022-08-17T23:14:51.394Z,49.45
2022-08-17T23:17:18.182Z,49.63
2022-08-17T23:19:45.204Z,49.71
2022-08-17T23:22:12.002Z,49.61
2022-08-17T23:24:43.457Z,49.66
2022-08-17T23:27:10.844Z,49.68
2022-08-17T23:29:41.561Z,49.68
2022-08-17T23:32:11.191Z,49.56
2022-08-17T23:34:39.426Z,49.62
2022-08-17T23:37:07.445Z,49.54
2022-08-17T23:39:35.524Z,49.41
2022-08-17T23:42:06.624Z,49.47
2022-08-17T23:44:33.861Z,49.34
2022-08-17T23:47:04.553Z,49.51
2022-08-17T23:49:32.233Z,49.70
2022-08-17T23:52:01.036Z,49.83
2022-08-17T23:54:33.575Z,49.84
2022-08-17T23:57:01.383Z,49.75
2022-08-17T23:59:29.368Z,49.69
